Time;durP1;ratioP1;P1;durP2;ratioP2;P2;SDS_P1;SDS_P2;PMS_P1;PMS_P2;Temp;Humidity;BMP_temperature;BMP_pressure;BME280_temperature;BME280_humidity;BME280_pressure;Samples;Min_cycle;Max_cycle;Signal;HPM_P1;HPM_P2
2023/03/21 00:01:27;;;;;;;17.38;10.77;;;;;;;8.26;100.00;101544.25;5071428;28;20060;-65
2023/03/21 00:03:52;;;;;;;15.05;10.77;;;;;;;8.24;100.00;101535.56;5071063;28;20025;-66
2023/03/21 00:06:17;;;;;;;17.20;11.57;;;;;;;8.23;100.00;101534.66;5071599;28;20382;-65
2023/03/21 00:08:43;;;;;;;17.95;12.02;;;;;;;8.20;100.00;101534.50;5070391;28;20548;-65
2023/03/21 00:11:10;;;;;;;19.30;12.48;;;;;;;8.18;100.00;101536.09;5071436;28;20028;-65
2023/03/21 00:13:41;;;;;;;13.05;11.43;;;;;;;8.15;100.00;101525.59;5070893;28;20024;-65
2023/03/21 00:16:08;;;;;;;18.70;12.13;;;;;;;8.11;100.00;101527.13;5060065;28;20025;-65
2023/03/21 00:18:41;;;;;;;16.13;12.02;;;;;;;8.11;100.00;101521.97;5051525;28;20025;-66
2023/03/21 00:21:09;;;;;;;17.05;11.35;;;;;;;8.11;100.00;101521.97;5052124;28;20083;-66
2023/03/21 00:23:35;;;;;;;18.42;12.02;;;;;;;8.10;100.00;101515.03;5052105;28;20029;-65
2023/03/21 00:26:00;;;;;;;14.82;10.55;;;;;;;8.09;100.00;101521.03;5051319;28;20104;-66
2023/03/21 00:28:26;;;;;;;15.95;11.50;;;;;;;8.09;100.00;101514.97;5050571;28;20115;-65
2023/03/21 00:30:57;;;;;;;13.57;11.18;;;;;;;8.10;100.00;101517.63;5051498;28;20033;-65
2023/03/21 00:33:22;;;;;;;20.85;11.45;;;;;;;8.12;100.00;101510.84;5038781;28;20111;-66
2023/03/21 00:35:50;;;;;;;18.63;11.35;;;;;;;8.14;100.00;101503.19;5051326;28;20112;-65
2023/03/21 00:38:16;;;;;;;15.98;10.75;;;;;;;8.13;100.00;101499.69;5051495;28;20401;-65
2023/03/21 00:40:42;;;;;;;13.57;10.32;;;;;;;8.15;100.00;101500.66;5051821;28;20025;-65
2023/03/21 00:43:07;;;;;;;19.42;11.02;;;;;;;8.17;100.00;101493.91;5051580;28;20027;-66
2023/03/21 00:45:32;;;;;;;13.98;10.27;;;;;;;8.21;100.00;101499.22;5051760;28;20021;-66
2023/03/21 00:47:58;;;;;;;14.18;10.75;;;;;;;8.21;100.00;101499.22;5051286;28;20040;-66
2023/03/21 00:50:24;;;;;;;15.25;10.02;;;;;;;8.22;100.00;101496.72;5050594;28;20021;-65
2023/03/21 00:52:50;;;;;;;13.70;9.70;;;;;;;8.25;100.00;101496.00;5063208;28;20047;-65
2023/03/21 00:55:17;;;;;;;15.70;9.75;;;;;;;8.25;100.00;101480.50;5050121;28;20487;-66
2023/03/21 00:57:44;;;;;;;19.45;9.95;;;;;;;8.26;100.00;101477.09;5057696;28;20017;-65
2023/03/21 01:00:11;;;;;;;13.98;9.13;;;;;;;8.27;100.00;101479.75;5069683;28;20081;-66
2023/03/21 01:02:41;;;;;;;14.75;8.80;;;;;;;8.26;100.00;101478.00;5050951;28;20036;-65
2023/03/21 01:05:09;;;;;;;13.48;8.65;;;;;;;8.26;100.00;101471.94;5051559;28;20029;-66
2023/03/21 01:07:34;;;;;;;11.85;8.60;;;;;;;8.28;100.00;101466.06;5050855;28;20028;-65
2023/03/21 01:10:00;;;;;;;13.27;9.45;;;;;;;8.30;100.00;101473.88;5050889;28;20029;-65
2023/03/21 01:12:26;;;;;;;15.73;9.13;;;;;;;8.31;100.00;101462.72;5051083;28;20023;-65
2023/03/21 01:14:51;;;;;;;12.88;8.52;;;;;;;8.31;100.00;101454.13;5050545;28;20021;-66
2023/03/21 01:17:17;;;;;;;14.95;8.63;;;;;;;8.31;100.00;101452.41;5051059;28;20112;-66
2023/03/21 01:19:42;;;;;;;12.50;8.57;;;;;;;8.31;100.00;101449.81;5051814;28;20071;-65
2023/03/21 01:22:07;;;;;;;10.75;7.68;;;;;;;8.31;100.00;101444.66;5050912;28;20029;-65
2023/03/21 01:24:33;;;;;;;15.82;9.25;;;;;;;8.31;100.00;101436.91;5051621;28;20330;-65
2023/03/21 01:26:58;;;;;;;12.60;8.38;;;;;;;8.32;100.00;101436.13;5051034;28;20107;-65
2023/03/21 01:29:23;;;;;;;14.40;8.00;;;;;;;8.33;100.00;101439.59;5052285;28;20496;-65
2023/03/21 01:31:49;;;;;;;14.30;8.07;;;;;;;8.32;100.00;101436.13;5050905;28;20086;-65
2023/03/21 01:34:14;;;;;;;11.90;7.43;;;;;;;8.32;100.00;101436.13;5051538;28;20474;-65
2023/03/21 01:36:39;;;;;;;13.52;8.63;;;;;;;8.33;100.00;101430.13;5051376;28;20020;-65
2023/03/21 01:39:05;;;;;;;14.32;7.72;;;;;;;8.37;100.00;101428.59;5052636;28;20029;-65
2023/03/21 01:41:41;;;;;;;12.75;8.02;;;;;;;8.36;100.00;101427.72;5051044;28;20049;-64
2023/03/21 01:44:13;;;;;;;12.52;7.20;;;;;;;8.35;100.00;101420.75;5051377;28;20024;-65
2023/03/21 01:46:48;;;;;;;9.55;7.07;;;;;;;8.35;100.00;101423.34;5050878;28;20033;-65
2023/03/21 01:49:37;;;;;;;11.43;7.90;;;;;;;8.37;100.00;101428.59;5052247;28;20052;-65
2023/03/21 01:52:07;;;;;;;11.05;7.07;;;;;;;8.36;100.00;101422.56;5052176;28;20572;-65
2023/03/21 01:54:36;;;;;;;11.52;7.50;;;;;;;8.35;100.00;101418.19;5051035;28;20025;-65
2023/03/21 01:57:08;;;;;;;9.70;7.40;;;;;;;8.35;100.00;101418.19;5050787;28;20432;-65
2023/03/21 01:59:41;;;;;;;10.50;7.20;;;;;;;8.34;100.00;101416.44;5049705;28;20063;-65
2023/03/21 02:02:12;;;;;;;10.55;6.80;;;;;;;8.34;100.00;101416.44;5050346;28;20036;-65
2023/03/21 02:04:39;;;;;;;9.30;7.10;;;;;;;8.34;100.00;101410.38;5049453;28;20385;-65
2023/03/21 02:07:08;;;;;;;9.23;6.72;;;;;;;8.34;100.00;101408.69;5048697;28;20017;-65
2023/03/21 02:09:39;;;;;;;12.13;7.57;;;;;;;8.33;100.00;101411.19;5049716;28;20024;-65
2023/03/21 02:12:05;;;;;;;11.50;7.53;;;;;;;8.31;100.00;101408.50;5068042;28;20027;-65
2023/03/21 02:14:33;;;;;;;11.63;7.63;;;;;;;8.31;100.00;101400.75;5069299;28;20044;-64
2023/03/21 02:17:20;;;;;;;12.55;7.40;;;;;;;8.29;100.00;101390.34;5050092;28;20094;-65
2023/03/21 02:20:13;;;;;;;9.20;7.63;;;;;;;8.29;100.00;101394.66;5049302;28;20221;-65
2023/03/21 02:23:03;;;;;;;11.45;7.97;;;;;;;8.28;100.00;101387.69;5049768;28;20029;-65
2023/03/21 02:25:31;;;;;;;11.95;8.48;;;;;;;8.31;100.00;101381.81;5038833;28;20543;-65
2023/03/21 02:28:15;;;;;;;14.18;7.90;;;;;;;8.29;100.00;101380.03;5049468;28;20114;-66
2023/03/21 02:30:59;;;;;;;10.30;7.60;;;;;;;8.31;100.00;101380.09;5049224;28;20306;-65
2023/03/21 02:33:40;;;;;;;11.45;8.45;;;;;;;8.29;100.00;101380.03;5037505;28;20354;-65
2023/03/21 02:36:16;;;;;;;13.90;7.80;;;;;;;8.28;100.00;101367.03;5050296;28;20044;-64
2023/03/21 02:38:55;;;;;;;10.32;7.25;;;;;;;8.28;100.00;101372.19;5049302;28;20416;-65
2023/03/21 02:41:38;;;;;;;11.82;8.18;;;;;;;8.27;100.00;101371.31;5048645;28;20036;-65
2023/03/21 02:44:20;;;;;;;12.98;7.07;;;;;;;8.27;100.00;101371.31;5049214;28;20025;-65
2023/03/21 02:46:58;;;;;;;12.93;8.48;;;;;;;8.27;100.00;101365.28;5049173;28;20458;-65
2023/03/21 02:49:41;;;;;;;13.30;7.85;;;;;;;8.27;100.00;101365.28;5049184;28;20040;-65
2023/03/21 02:52:10;;;;;;;14.65;8.60;;;;;;;8.28;100.00;101365.34;5048453;28;20112;-65
2023/03/21 02:54:37;;;;;;;15.20;8.13;;;;;;;8.27;100.00;101366.13;5049109;28;20096;-65
2023/03/21 02:57:03;;;;;;;11.82;8.57;;;;;;;8.25;100.00;101366.88;5050576;28;20033;-65
2023/03/21 02:59:30;;;;;;;13.05;8.27;;;;;;;8.25;100.00;101361.72;5053400;28;20017;-65
2023/03/21 03:01:57;;;;;;;11.63;7.47;;;;;;;8.25;100.00;101361.72;5045533;28;20021;-65
2023/03/21 03:04:27;;;;;;;11.00;8.18;;;;;;;8.25;100.00;101356.56;5068588;28;20021;-65
2023/03/21 03:07:10;;;;;;;13.30;8.00;;;;;;;8.25;100.00;101352.28;5067712;28;20082;-65
2023/03/21 03:09:43;;;;;;;11.90;7.32;;;;;;;8.25;100.00;101349.72;5068020;28;20302;-65
2023/03/21 03:12:26;;;;;;;11.30;7.80;;;;;;;8.24;100.00;101354.81;5066509;28;20153;-65
2023/03/21 03:15:16;;;;;;;10.77;7.03;;;;;;;8.24;100.00;101344.47;5067006;28;20055;-65
2023/03/21 03:17:58;;;;;;;11.77;7.15;;;;;;;8.25;100.00;101341.97;5067302;28;20024;-65
2023/03/21 03:20:45;;;;;;;13.82;7.35;;;;;;;8.22;100.00;101335.75;5043612;28;20024;-65
2023/03/21 03:23:17;;;;;;;11.45;7.85;;;;;;;8.22;100.00;101343.50;5066420;28;20027;-65
2023/03/21 03:26:03;;;;;;;13.02;7.70;;;;;;;8.20;100.00;101339.97;5067719;28;20432;-65
2023/03/21 03:28:37;;;;;;;12.73;7.70;;;;;;;8.17;100.00;101341.56;5042305;28;20447;-65
2023/03/21 03:31:04;;;;;;;11.95;6.88;;;;;;;8.17;100.00;101328.66;5065229;28;20013;-65
2023/03/21 03:33:32;;;;;;;11.10;7.50;;;;;;;8.16;100.00;101328.59;5047925;28;20456;-65
2023/03/21 03:35:58;;;;;;;13.35;7.63;;;;;;;8.11;100.00;101333.50;5047664;28;20452;-65
2023/03/21 03:38:26;;;;;;;10.88;7.15;;;;;;;8.10;100.00;101336.91;5047611;28;20075;-65
2023/03/21 03:40:56;;;;;;;10.90;7.28;;;;;;;8.12;100.00;101334.41;5062907;28;20086;-65
2023/03/21 03:43:28;;;;;;;10.20;6.85;;;;;;;8.10;100.00;101331.75;5067655;28;20475;-65
2023/03/21 03:46:00;;;;;;;14.35;7.13;;;;;;;8.11;100.00;101323.19;5066988;28;20055;-65
2023/03/21 03:48:32;;;;;;;14.73;8.05;;;;;;;8.10;100.00;101331.75;5066576;28;20111;-65
2023/03/21 03:51:03;;;;;;;9.55;7.28;;;;;;;8.10;100.00;101316.25;5048613;28;20104;-64
2023/03/21 03:53:31;;;;;;;13.23;7.75;;;;;;;8.11;100.00;101315.44;5047222;28;20057;-65
2023/03/21 03:55:59;;;;;;;11.65;7.43;;;;;;;8.09;100.00;101317.09;5047195;28;20091;-65
2023/03/21 03:58:26;;;;;;;13.40;7.82;;;;;;;8.05;100.00;101316.03;5047274;28;20029;-65
2023/03/21 04:00:53;;;;;;;12.35;7.45;;;;;;;8.05;100.00;101310.88;5060741;28;20025;-65
2023/03/21 04:03:18;;;;;;;16.35;7.93;;;;;;;8.08;100.00;101317.88;5047441;28;20481;-65
2023/03/21 04:05:46;;;;;;;13.05;8.60;;;;;;;8.06;100.00;101311.75;5047359;28;20031;-65
2023/03/21 04:08:14;;;;;;;12.05;7.72;;;;;;;8.04;100.00;101321.13;5059787;28;20040;-65
2023/03/21 04:10:40;;;;;;;16.88;8.63;;;;;;;8.03;100.00;101314.19;5034603;28;20079;-64
2023/03/21 04:13:06;;;;;;;15.35;9.02;;;;;;;7.99;100.00;101314.81;5047541;28;20028;-65
2023/03/21 04:15:31;;;;;;;11.75;8.55;;;;;;;7.99;100.00;101312.25;5047173;28;20184;-65
2023/03/21 04:17:56;;;;;;;13.52;7.80;;;;;;;8.00;100.00;101303.72;5047743;28;20230;-65
2023/03/21 04:20:22;;;;;;;12.75;8.70;;;;;;;7.98;100.00;101305.31;5047402;28;20024;-65
2023/03/21 04:22:48;;;;;;;13.93;8.70;;;;;;;7.97;100.00;101301.84;5047841;28;20109;-65
2023/03/21 04:25:14;;;;;;;14.13;8.43;;;;;;;7.97;100.00;101308.72;5047065;28;20103;-65
2023/03/21 04:27:39;;;;;;;12.82;8.15;;;;;;;7.98;100.00;101297.56;5047884;28;20396;-65
2023/03/21 04:30:06;;;;;;;12.40;8.13;;;;;;;7.97;100.00;101299.25;5051370;28;20024;-65
2023/03/21 04:32:32;;;;;;;14.30;8.80;;;;;;;7.98;100.00;101295.00;5064012;28;20029;-66
2023/03/21 04:34:59;;;;;;;18.17;8.68;;;;;;;8.01;100.00;101295.13;5050764;28;20078;-66
2023/03/21 04:37:24;;;;;;;12.88;8.00;;;;;;;8.00;100.00;101288.22;5064038;28;20055;-66
2023/03/21 04:39:50;;;;;;;17.20;9.30;;;;;;;8.00;100.00;101283.06;5069835;28;20024;-66
2023/03/21 04:42:17;;;;;;;14.23;7.95;;;;;;;8.03;100.00;101285.78;5069784;28;20187;-66
2023/03/21 04:44:43;;;;;;;13.02;8.25;;;;;;;8.02;100.00;101287.47;5070230;28;20024;-66
2023/03/21 04:47:09;;;;;;;13.88;8.73;;;;;;;8.00;100.00;101283.06;5056924;28;20044;-66
2023/03/21 04:49:35;;;;;;;14.00;8.70;;;;;;;8.02;100.00;101281.44;5070400;28;20445;-65
2023/03/21 04:52:00;;;;;;;14.85;8.65;;;;;;;8.04;100.00;101280.69;5068610;28;20035;-66
2023/03/21 04:54:25;;;;;;;13.73;8.18;;;;;;;8.04;100.00;101275.53;5062619;28;20025;-66
2023/03/21 04:56:51;;;;;;;12.43;8.20;;;;;;;8.06;100.00;101275.59;5050381;28;20057;-66
2023/03/21 04:59:17;;;;;;;14.82;7.93;;;;;;;8.08;100.00;101270.53;5050470;28;20021;-66
2023/03/21 05:01:43;;;;;;;13.95;8.23;;;;;;;8.08;100.00;101270.53;5050058;28;20033;-66
2023/03/21 05:04:11;;;;;;;12.07;8.38;;;;;;;8.09;100.00;101267.13;5043823;28;20474;-66
2023/03/21 05:06:36;;;;;;;11.68;7.43;;;;;;;8.12;100.00;101267.28;5069216;28;20024;-66
2023/03/21 05:09:04;;;;;;;16.75;7.40;;;;;;;8.11;100.00;101268.09;5069319;28;20044;-66
2023/03/21 05:11:30;;;;;;;18.35;7.75;;;;;;;8.13;100.00;101258.75;5069023;28;20036;-66
2023/03/21 05:14:00;;;;;;;13.82;8.13;;;;;;;8.16;100.00;101264.06;5069639;28;20562;-66
2023/03/21 05:16:29;;;;;;;14.70;7.97;;;;;;;8.15;100.00;101263.16;5069128;28;20442;-66
2023/03/21 05:18:54;;;;;;;12.68;7.75;;;;;;;8.17;100.00;101261.53;5069952;28;20447;-66
2023/03/21 05:21:21;;;;;;;11.43;6.78;;;;;;;8.16;100.00;101264.94;5069455;28;20032;-66
2023/03/21 05:23:53;;;;;;;15.88;8.00;;;;;;;8.17;100.00;101263.22;5069865;28;20032;-66
2023/03/21 05:26:20;;;;;;;12.50;6.97;;;;;;;8.17;100.00;101261.53;5066302;28;20603;-66
2023/03/21 05:28:46;;;;;;;10.50;6.97;;;;;;;8.20;100.00;101259.91;5049550;28;20468;-66
2023/03/21 05:31:15;;;;;;;16.38;7.80;;;;;;;8.20;100.00;101259.91;5046053;28;20036;-66
2023/03/21 05:33:41;;;;;;;14.63;7.97;;;;;;;8.21;100.00;101259.09;5060926;28;20021;-66
2023/03/21 05:36:07;;;;;;;13.52;7.63;;;;;;;8.20;100.00;101255.66;5055493;28;20480;-63
2023/03/21 05:38:32;;;;;;;12.00;7.65;;;;;;;8.20;100.00;101247.00;5061896;28;20067;-64
2023/03/21 05:40:57;;;;;;;14.52;6.82;;;;;;;8.21;100.00;101260.00;5057318;28;20031;-65
2023/03/21 05:43:23;;;;;;;12.98;7.85;;;;;;;8.20;100.00;101260.81;5064546;28;20591;-65
2023/03/21 05:45:48;;;;;;;14.13;7.00;;;;;;;8.17;100.00;101261.53;5065100;28;20427;-65
2023/03/21 05:48:14;;;;;;;14.02;8.05;;;;;;;8.17;100.00;101261.53;5066079;28;20067;-65
2023/03/21 05:50:39;;;;;;;10.48;7.05;;;;;;;8.17;100.00;101260.66;5054655;28;20485;-64
2023/03/21 05:53:04;;;;;;;11.38;7.05;;;;;;;8.19;100.00;101265.88;5045565;28;20052;-64
2023/03/21 05:55:30;;;;;;;12.57;6.55;;;;;;;8.19;100.00;101258.13;5043663;28;20123;-64
2023/03/21 05:57:55;;;;;;;12.55;7.13;;;;;;;8.19;100.00;101251.28;5041274;28;20452;-65
2023/03/21 06:00:23;;;;;;;11.25;6.30;;;;;;;8.20;100.00;101260.81;5063993;28;20030;-64
2023/03/21 06:02:49;;;;;;;11.93;7.03;;;;;;;8.21;100.00;101253.94;5068275;28;20032;-64
2023/03/21 06:05:14;;;;;;;12.13;6.55;;;;;;;8.21;100.00;101257.41;5066663;28;20320;-65
2023/03/21 06:07:39;;;;;;;11.05;6.60;;;;;;;8.24;100.00;101256.69;5068192;28;20437;-64
2023/03/21 06:10:05;;;;;;;11.00;6.57;;;;;;;8.25;100.00;101258.44;5064370;28;20025;-64
2023/03/21 06:12:31;;;;;;;8.98;5.72;;;;;;;8.24;100.00;101256.69;5064699;28;20021;-65
2023/03/21 06:14:56;;;;;;;14.23;6.18;;;;;;;8.26;100.00;101250.75;5044592;28;20037;-64
2023/03/21 06:17:21;;;;;;;8.95;6.15;;;;;;;8.27;100.00;101251.66;5058892;28;20473;-65
2023/03/21 06:19:47;;;;;;;9.60;5.68;;;;;;;8.27;100.00;101252.53;5059936;28;20115;-64
2023/03/21 06:22:12;;;;;;;10.77;5.68;;;;;;;8.31;100.00;101258.72;5055908;28;20120;-64
2023/03/21 06:24:37;;;;;;;10.48;5.97;;;;;;;8.35;100.00;101254.59;5053006;28;20123;-64
2023/03/21 06:27:03;;;;;;;10.13;5.13;;;;;;;8.39;100.00;101261.69;5051509;28;20454;-65
2023/03/21 06:29:28;;;;;;;10.10;5.72;;;;;;;8.39;100.00;101265.16;5048038;28;20044;-64
2023/03/21 06:31:53;;;;;;;11.57;5.40;;;;;;;8.39;100.00;101257.41;5034813;28;20092;-65
2023/03/21 06:34:19;;;;;;;11.70;5.22;;;;;;;8.44;100.00;101264.50;5039312;28;20025;-64
2023/03/21 06:36:45;;;;;;;9.13;5.07;;;;;;;8.45;100.00;101262.00;5048243;28;20365;-65
2023/03/21 06:39:11;;;;;;;11.10;5.38;;;;;;;8.48;100.00;101272.47;5058002;28;20108;-65
2023/03/21 06:41:36;;;;;;;11.63;4.85;;;;;;;8.53;100.00;101270.97;5063911;28;20127;-64
2023/03/21 06:44:02;;;;;;;11.25;5.10;;;;;;;8.53;100.00;101270.97;5059350;28;20644;-64
2023/03/21 06:46:27;;;;;;;7.43;4.60;;;;;;;8.56;100.00;101269.38;5063773;28;20024;-65
2023/03/21 06:48:52;;;;;;;11.75;4.82;;;;;;;8.56;100.00;101275.44;5059779;28;20060;-65
2023/03/21 06:51:18;;;;;;;10.77;5.47;;;;;;;8.58;100.00;101267.78;5061667;28;20081;-64
2023/03/21 06:53:43;;;;;;;11.23;5.00;;;;;;;8.60;100.00;101272.19;5058222;28;20040;-65
2023/03/21 06:56:11;;;;;;;9.60;4.75;;;;;;;8.58;100.00;101268.63;5054641;28;20041;-64
2023/03/21 06:58:37;;;;;;;11.63;5.22;;;;;;;8.56;100.00;101270.28;5060208;28;20035;-64
2023/03/21 07:01:03;;;;;;;10.38;5.93;;;;;;;8.56;100.00;101267.69;5066002;28;20036;-66
2023/03/21 07:03:28;;;;;;;11.85;5.82;;;;;;;8.56;100.00;101269.38;5065093;28;20761;-64
2023/03/21 07:05:54;;;;;;;9.48;5.28;;;;;;;8.53;100.00;101270.09;5065561;28;20027;-64
2023/03/21 07:08:20;;;;;;;11.25;5.63;;;;;;;8.53;100.00;101275.25;5066772;28;20029;-64
2023/03/21 07:10:46;;;;;;;10.70;6.07;;;;;;;8.51;100.00;101272.59;5067937;28;20189;-64
2023/03/21 07:13:11;;;;;;;11.95;5.65;;;;;;;8.50;100.00;101282.88;5067046;28;20032;-64
2023/03/21 07:15:37;;;;;;;8.20;5.97;;;;;;;8.50;100.00;101275.13;5067979;28;20469;-64
2023/03/21 07:18:04;;;;;;;13.35;6.65;;;;;;;8.47;100.00;101280.13;5067299;28;20519;-64
2023/03/21 07:20:30;;;;;;;14.25;6.40;;;;;;;8.46;100.00;101284.41;5066996;28;20439;-64
2023/03/21 07:22:56;;;;;;;9.02;5.70;;;;;;;8.47;100.00;101285.31;5066602;28;20022;-64
2023/03/21 07:25:21;;;;;;;10.32;5.78;;;;;;;8.46;100.00;101283.53;5066450;28;20028;-64
2023/03/21 07:27:46;;;;;;;14.02;6.55;;;;;;;8.49;100.00;101283.69;5067233;28;20055;-64
2023/03/21 07:30:12;;;;;;;13.77;5.97;;;;;;;8.49;100.00;101286.28;5068038;28;20089;-66
2023/03/21 07:32:37;;;;;;;10.38;6.40;;;;;;;8.48;100.00;101287.97;5066932;28;20381;-64
2023/03/21 07:35:03;;;;;;;11.45;6.70;;;;;;;8.52;100.00;101291.56;5067461;28;20025;-64
2023/03/21 07:37:28;;;;;;;12.60;6.90;;;;;;;8.50;100.00;101293.19;5066774;28;20456;-65
2023/03/21 07:39:54;;;;;;;17.48;7.20;;;;;;;8.48;100.00;101287.06;5067185;28;20029;-65
2023/03/21 07:42:19;;;;;;;13.75;7.28;;;;;;;8.50;100.00;101295.78;5065949;28;20036;-64
2023/03/21 07:44:45;;;;;;;14.90;8.27;;;;;;;8.48;100.00;101290.53;5067528;28;20108;-64
2023/03/21 07:47:10;;;;;;;13.45;7.32;;;;;;;8.49;100.00;101291.44;5065869;28;20029;-65
2023/03/21 07:49:36;;;;;;;11.50;7.57;;;;;;;8.48;100.00;101284.47;5067034;28;20028;-64
2023/03/21 07:52:03;;;;;;;15.20;7.53;;;;;;;8.46;100.00;101283.53;5065415;28;20035;-64
2023/03/21 07:54:28;;;;;;;16.10;8.13;;;;;;;8.45;100.00;101281.75;5066709;28;20396;-64
2023/03/21 07:56:54;;;;;;;16.10;8.98;;;;;;;8.44;100.00;101275.69;5052602;28;20029;-64
2023/03/21 07:59:20;;;;;;;14.10;10.02;;;;;;;8.41;100.00;101275.56;5047838;28;20028;-65
2023/03/21 08:01:45;;;;;;;12.27;8.05;;;;;;;8.39;100.00;101275.50;5048375;28;20055;-64
2023/03/21 08:04:11;;;;;;;12.88;9.27;;;;;;;8.41;100.00;101268.72;5050617;28;20028;-64
2023/03/21 08:06:36;;;;;;;14.55;9.95;;;;;;;8.39;100.00;101260.00;5051204;28;20459;-65
2023/03/21 08:09:02;;;;;;;15.10;9.00;;;;;;;8.40;100.00;101258.31;5051249;28;20024;-64
2023/03/21 08:11:30;;;;;;;16.20;10.32;;;;;;;8.40;100.00;101253.13;5051635;28;20036;-64
2023/03/21 08:13:59;;;;;;;19.70;10.15;;;;;;;8.44;100.00;101249.00;5038564;28;20025;-64
2023/03/21 08:16:25;;;;;;;15.60;9.77;;;;;;;8.46;100.00;101249.94;5051695;28;20466;-65
2023/03/21 08:18:50;;;;;;;18.77;9.82;;;;;;;8.52;100.00;101248.56;5051688;28;20037;-63
2023/03/21 08:21:16;;;;;;;16.15;10.48;;;;;;;8.55;100.00;101246.91;5051249;28;20460;-64
2023/03/21 08:23:41;;;;;;;18.65;9.20;;;;;;;8.57;100.00;101238.47;5051081;28;20499;-64
2023/03/21 08:26:08;;;;;;;18.38;10.70;;;;;;;8.58;100.00;101237.63;5050640;28;20039;-63
2023/03/21 08:28:35;;;;;;;16.42;9.98;;;;;;;8.62;100.00;101234.38;5051179;28;20024;-63
2023/03/21 08:31:06;;;;;;;16.73;10.10;;;;;;;8.60;100.00;101230.84;5050744;28;20473;-64
2023/03/21 08:33:31;;;;;;;19.17;9.65;;;;;;;8.58;100.00;101227.31;5050894;28;20024;-64
2023/03/21 08:35:59;;;;;;;18.45;9.35;;;;;;;8.57;100.00;101227.22;5063476;28;20423;-65
2023/03/21 08:38:28;;;;;;;14.60;8.90;;;;;;;8.55;100.00;101226.22;5050687;28;20021;-64
2023/03/21 08:40:54;;;;;;;17.48;9.05;;;;;;;8.55;100.00;101221.97;5050973;28;20020;-64
2023/03/21 08:43:19;;;;;;;13.27;7.60;;;;;;;8.59;100.00;101234.25;5050989;28;20044;-64
2023/03/21 08:45:45;;;;;;;13.48;8.00;;;;;;;8.58;100.00;101232.47;5051071;28;20025;-64
2023/03/21 08:48:10;;;;;;;12.95;7.95;;;;;;;8.57;100.00;101233.28;5050926;28;20056;-64
2023/03/21 08:50:36;;;;;;;18.80;8.00;;;;;;;8.59;100.00;101228.19;5051592;28;20017;-64
2023/03/21 08:53:01;;;;;;;11.30;7.82;;;;;;;8.58;100.00;101226.44;5050522;28;20463;-64
2023/03/21 08:55:27;;;;;;;12.48;7.60;;;;;;;8.61;100.00;101221.41;5049931;28;20107;-64
2023/03/21 08:57:52;;;;;;;7.63;6.43;;;;;;;8.64;100.00;101216.38;5058938;28;20025;-65
2023/03/21 09:00:19;;;;;;;12.82;6.90;;;;;;;8.65;100.00;101213.84;5068655;28;20033;-64
2023/03/21 09:02:47;;;;;;;12.80;7.28;;;;;;;8.66;100.00;101214.75;5050875;28;20481;-64
2023/03/21 09:05:13;;;;;;;8.98;6.85;;;;;;;8.71;100.00;101214.94;5050236;28;20119;-65
2023/03/21 09:07:40;;;;;;;11.30;7.50;;;;;;;8.74;100.00;101203.06;5050129;28;20059;-64
2023/03/21 09:10:09;;;;;;;12.13;7.45;;;;;;;8.76;100.00;101205.72;5050161;28;20509;-64
2023/03/21 09:12:34;;;;;;;12.95;8.48;;;;;;;8.80;100.00;101209.31;5050112;28;20405;-65
2023/03/21 09:15:01;;;;;;;14.77;7.20;;;;;;;8.84;100.00;101208.63;5051694;28;20155;-64
2023/03/21 09:17:27;;;;;;;15.07;7.80;;;;;;;8.92;100.00;101209.00;5069950;28;20063;-65
2023/03/21 09:19:53;;;;;;;12.85;7.32;;;;;;;8.94;100.00;101207.38;5068929;28;20064;-65
2023/03/21 09:22:22;;;;;;;11.52;6.45;;;;;;;8.96;100.00;101205.75;5069626;28;20551;-64
2023/03/21 09:24:48;;;;;;;12.45;7.45;;;;;;;8.97;100.00;101204.91;5066891;28;20437;-65
2023/03/21 09:27:16;;;;;;;14.60;7.13;;;;;;;8.96;100.00;101198.84;5050154;28;20032;-65
2023/03/21 09:29:43;;;;;;;10.88;6.95;;;;;;;8.98;100.00;101206.66;5049300;28;20027;-64
2023/03/21 09:32:10;;;;;;;11.52;6.80;;;;;;;8.99;100.00;101198.13;5050344;28;20104;-65
2023/03/21 09:34:38;;;;;;;8.35;6.35;;;;;;;9.01;100.00;101197.34;5050931;28;20087;-65
2023/03/21 09:37:08;;;;;;;13.10;6.30;;;;;;;9.04;100.00;101190.56;5050396;28;20073;-64
2023/03/21 09:39:35;;;;;;;9.57;6.45;;;;;;;9.05;100.00;101193.19;5050436;28;20025;-64
2023/03/21 09:42:29;;;;;;;10.43;6.70;;;;;;;9.09;100.00;101196.81;5050007;28;20057;-64
2023/03/21 09:45:01;;;;;;;13.15;6.70;;;;;;;9.15;100.00;101189.34;5050823;28;20025;-64
2023/03/21 09:47:32;;;;;;;13.18;6.45;;;;;;;9.18;100.00;101191.16;5050833;28;20039;-64
2023/03/21 09:50:11;;;;;;;8.88;6.18;;;;;;;9.21;100.00;101188.72;5050482;28;20047;-64
2023/03/21 09:52:55;;;;;;;11.15;5.53;;;;;;;9.22;100.00;101181.03;5050471;28;20469;-64
2023/03/21 09:55:25;;;;;;;12.48;6.43;;;;;;;9.25;100.00;101186.31;5049402;28;20029;-64
2023/03/21 09:58:24;;;;;;;9.88;6.30;;;;;;;9.29;100.00;101182.16;5057467;28;20016;-64
2023/03/21 10:00:55;;;;;;;12.65;7.03;;;;;;;9.32;100.00;101177.13;5049589;28;20036;-64
2023/03/21 10:03:28;;;;;;;11.07;5.78;;;;;;;9.37;100.00;101174.75;5049138;28;20040;-65
2023/03/21 10:05:57;;;;;;;7.55;5.78;;;;;;;9.41;100.00;101165.41;5048964;28;20029;-65
2023/03/21 10:08:45;;;;;;;11.77;5.35;;;;;;;9.44;100.00;101160.34;5048829;28;20025;-64
2023/03/21 10:11:17;;;;;;;8.93;5.85;;;;;;;9.47;100.00;101163.06;5049298;28;20469;-64
2023/03/21 10:13:48;;;;;;;8.40;5.03;;;;;;;9.55;100.00;101153.91;5048797;28;20090;-64
2023/03/21 10:16:18;;;;;;;6.53;4.50;;;;;;;9.60;100.00;101162.78;5048977;28;20024;-64
2023/03/21 10:18:45;;;;;;;9.07;5.35;;;;;;;9.67;100.00;101157.81;5048593;28;20374;-65
2023/03/21 10:21:21;;;;;;;12.82;4.80;;;;;;;9.72;100.00;101148.53;5048984;28;20028;-65
2023/03/21 10:23:48;;;;;;;9.95;5.43;;;;;;;9.79;100.00;101145.38;5049244;28;20067;-65
2023/03/21 10:26:13;;;;;;;6.70;4.45;;;;;;;9.80;100.00;101152.34;5048367;28;20033;-64
2023/03/21 10:28:44;;;;;;;10.68;4.93;;;;;;;9.84;100.00;101150.72;5049210;28;20109;-66
2023/03/21 10:31:15;;;;;;;9.48;5.07;;;;;;;9.91;100.00;101151.88;5049196;28;20036;-65
2023/03/21 10:33:47;;;;;;;8.85;5.10;;;;;;;9.96;100.00;101151.25;5049634;28;20025;-64
2023/03/21 10:36:19;;;;;;;7.95;4.90;;;;;;;10.04;100.00;101143.75;5049366;28;20024;-65
2023/03/21 10:38:47;;;;;;;7.13;4.75;;;;;;;10.09;100.00;101147.41;5048729;28;20116;-65
2023/03/21 10:41:13;;;;;;;8.25;4.93;;;;;;;10.18;100.00;101138.25;5050255;28;20025;-65
2023/03/21 10:43:41;;;;;;;8.73;4.90;;;;;;;10.21;100.00;101140.97;5048966;28;20495;-64
2023/03/21 10:46:22;;;;;;;8.70;4.75;;;;;;;10.30;100.00;101146.50;5049130;28;20029;-65
2023/03/21 10:48:52;;;;;;;6.38;3.85;;;;;;;10.35;100.00;101143.16;5048466;28;20137;-65
2023/03/21 10:51:26;;;;;;;9.32;4.93;;;;;;;10.45;100.00;101150.50;5048794;28;20104;-65
2023/03/21 10:53:55;;;;;;;7.95;3.97;;;;;;;10.52;100.00;101149.91;5049458;28;20420;-64
2023/03/21 10:56:27;;;;;;;9.50;4.35;;;;;;;10.61;100.00;101151.09;5048032;28;20048;-64
2023/03/21 10:58:57;;;;;;;8.40;4.57;;;;;;;10.62;100.00;101147.66;5061304;28;20024;-64
2023/03/21 11:01:35;;;;;;;7.15;4.40;;;;;;;10.67;100.00;101152.19;5048348;28;20408;-65
2023/03/21 11:04:06;;;;;;;8.57;4.40;;;;;;;10.75;100.00;101136.94;5048329;28;20188;-65
2023/03/21 11:06:35;;;;;;;7.78;4.00;;;;;;;10.85;100.00;101145.03;5048039;28;20021;-65
2023/03/21 11:09:07;;;;;;;7.38;4.28;;;;;;;10.87;100.00;101136.47;5035734;28;20025;-65
2023/03/21 11:11:40;;;;;;;5.75;3.85;;;;;;;10.94;100.00;101127.19;5048089;28;20055;-65
2023/03/21 11:14:22;;;;;;;6.25;3.60;;;;;;;11.02;100.00;101132.66;5048366;28;20287;-64
2023/03/21 11:16:48;;;;;;;7.05;3.83;;;;;;;11.08;100.00;101137.19;5047142;28;20013;-65
2023/03/21 11:19:17;;;;;;;8.05;3.85;;;;;;;11.09;100.00;101133.75;5048441;28;20103;-65
2023/03/21 11:21:43;;;;;;;8.82;4.20;;;;;;;11.08;100.00;101139.78;5049269;28;20024;-64
2023/03/21 11:24:13;;;;;;;8.02;3.80;;;;;;;11.14;100.00;101130.47;5048502;28;20032;-65